Time;durP1;ratioP1;P1;durP2;ratioP2;P2;SDS_P1;SDS_P2;PMS_P1;PMS_P2;Temp;Humidity;BMP_temperature;BMP_pressure;BME280_temperature;BME280_humidity;BME280_pressure;Samples;Min_cycle;Max_cycle;Signal;HPM_P1;HPM_P2
2021/05/22 00:00:36;;;;;;;12.05;2.47;;;;;;;-142.75;53.31;76036.88;4978828;28;20105;-76
2021/05/22 00:03:02;;;;;;;10.23;1.77;;;;;;;-142.75;53.44;76034.91;4989529;28;20029;-75
2021/05/22 00:05:27;;;;;;;15.50;2.28;;;;;;;-142.75;53.13;76032.94;4971793;28;20105;-75
2021/05/22 00:07:52;;;;;;;12.82;1.98;;;;;;;-142.75;52.73;76048.69;4989485;28;20036;-75
2021/05/22 00:10:18;;;;;;;19.98;2.78;;;;;;;-142.75;53.50;76050.66;4972350;28;20022;-75
2021/05/22 00:12:46;;;;;;;12.65;1.98;;;;;;;-142.75;53.60;76048.69;4989663;28;20030;-73
2021/05/22 00:15:14;;;;;;;18.00;2.27;;;;;;;-142.75;53.25;76032.94;4989209;28;20023;-73
2021/05/22 00:17:39;;;;;;;12.53;2.00;;;;;;;-142.75;53.69;76046.72;4972450;28;20529;-74
2021/05/22 00:20:07;;;;;;;17.10;1.92;;;;;;;-142.75;56.37;76058.53;4988749;28;20023;-74
2021/05/22 00:22:33;;;;;;;15.13;2.93;;;;;;;-142.75;56.73;76080.16;4988501;28;20035;-75
2021/05/22 00:24:58;;;;;;;13.25;2.42;;;;;;;-142.75;57.63;76093.94;4971502;28;20092;-75
2021/05/22 00:27:24;;;;;;;13.55;2.20;;;;;;;-142.75;57.58;76097.88;4988686;28;20040;-76
2021/05/22 00:29:49;;;;;;;15.23;1.88;;;;;;;-142.75;57.17;76113.63;4989057;28;20027;-76
2021/05/22 00:32:14;;;;;;;13.98;2.28;;;;;;;-142.75;58.29;76127.41;4971525;28;20058;-76
2021/05/22 00:34:40;;;;;;;13.88;2.13;;;;;;;-142.75;58.25;76133.31;4990102;28;20053;-76
2021/05/22 00:37:05;;;;;;;12.07;2.08;;;;;;;-142.75;58.12;76129.38;4989339;28;20022;-77
2021/05/22 00:39:30;;;;;;;10.77;1.98;;;;;;;-142.75;59.04;76137.25;4971914;28;20027;-77
2021/05/22 00:41:56;;;;;;;14.20;2.28;;;;;;;-142.75;59.79;76135.28;4977513;28;20040;-77
2021/05/22 00:44:22;;;;;;;12.90;2.08;;;;;;;-142.75;60.25;76156.94;4989938;28;20034;-77
2021/05/22 00:46:47;;;;;;;13.30;1.93;;;;;;;-142.75;60.59;76168.75;4989913;28;20109;-78
2021/05/22 00:49:13;;;;;;;19.20;2.63;;;;;;;-142.75;61.52;76186.47;4990203;28;20065;-78
2021/05/22 00:51:38;;;;;;;16.95;2.17;;;;;;;-142.75;62.40;76198.28;4971134;28;20026;-78
2021/05/22 00:54:05;;;;;;;14.80;2.80;;;;;;;-142.75;62.71;76198.28;4988846;28;20437;-78
2021/05/22 00:56:31;;;;;;;12.43;1.97;;;;;;;-142.75;63.58;76200.25;5072741;28;20030;-80
2021/05/22 00:58:56;;;;;;;10.13;2.13;;;;;;;-142.75;63.95;76204.16;4989395;28;20041;-80
2021/05/22 01:01:21;;;;;;;15.35;2.33;;;;;;;-142.75;64.01;76227.78;5063511;28;20034;-78
2021/05/22 01:03:52;;;;;;;14.37;2.83;;;;;;;-142.75;64.13;76235.66;4990573;28;20086;-78
2021/05/22 01:06:23;;;;;;;17.20;2.60;;;;;;;-142.75;64.48;76223.84;4990419;28;20289;-78
2021/05/22 01:08:55;;;;;;;18.30;2.60;;;;;;;-142.75;65.21;76231.72;4973103;28;20065;-77
2021/05/22 01:11:22;;;;;;;18.63;2.20;;;;;;;-142.75;65.71;76239.59;4973061;28;20022;-78
2021/05/22 01:13:57;;;;;;;9.90;1.90;;;;;;;-142.75;65.63;76243.53;4990953;28;20030;-79
2021/05/22 01:16:22;;;;;;;11.43;1.90;;;;;;;-142.75;65.28;76247.47;4974875;28;20046;-77
2021/05/22 01:18:48;;;;;;;16.67;2.50;;;;;;;-142.75;65.90;76239.59;4975251;28;20495;-77
2021/05/22 01:21:13;;;;;;;13.20;1.85;;;;;;;-142.75;64.99;76247.47;4993426;28;20030;-78
2021/05/22 01:23:50;;;;;;;18.10;1.65;;;;;;;-142.75;64.86;76231.72;4975709;28;20044;-78
2021/05/22 01:26:16;;;;;;;11.27;2.00;;;;;;;-142.75;64.93;76245.50;4991815;28;20029;-79
2021/05/22 01:28:44;;;;;;;10.70;1.95;;;;;;;-142.75;64.83;76237.63;4991380;28;20022;-79
2021/05/22 01:31:10;;;;;;;10.93;1.80;;;;;;;-142.75;65.11;76235.66;4975059;28;20504;-78
2021/05/22 01:33:35;;;;;;;7.70;1.70;;;;;;;-142.75;65.08;76241.56;4975494;28;20105;-79
2021/05/22 01:36:01;;;;;;;11.27;1.95;;;;;;;-142.75;64.96;76235.66;4993056;28;20042;-77
2021/05/22 01:38:26;;;;;;;9.27;2.07;;;;;;;-142.75;65.11;76223.84;4993247;28;20030;-77
2021/05/22 01:40:51;;;;;;;9.73;1.90;;;;;;;-142.75;65.30;76233.69;4975481;28;20030;-77
2021/05/22 01:43:19;;;;;;;10.35;1.92;;;;;;;-142.75;65.35;76225.81;4993375;28;20037;-79
2021/05/22 01:45:47;;;;;;;12.90;2.43;;;;;;;-142.75;64.68;76210.06;5060320;28;20035;-79
2021/05/22 01:48:18;;;;;;;13.10;1.80;;;;;;;-142.75;64.57;76212.03;5000501;28;20037;-78
2021/05/22 01:50:50;;;;;;;9.23;1.77;;;;;;;-142.75;64.77;76217.94;5000111;28;20075;-77
2021/05/22 01:53:17;;;;;;;11.83;1.80;;;;;;;-142.75;64.61;76206.13;4994338;28;20030;-76
2021/05/22 01:55:44;;;;;;;14.53;1.70;;;;;;;-142.75;64.75;76196.31;4984248;28;20125;-78
2021/05/22 01:58:10;;;;;;;13.40;1.80;;;;;;;-142.75;64.88;76212.03;4989711;28;20552;-76
2021/05/22 02:00:37;;;;;;;13.48;1.73;;;;;;;-142.75;64.48;76210.06;4993347;28;20041;-77
2021/05/22 02:03:10;;;;;;;;;;;;;;;-142.75;64.24;76196.31;4994276;28;20526;-76
2021/05/22 02:05:36;;;;;;;13.03;2.30;;;;;;;-142.75;64.41;76200.25;4998455;28;20462;-76
2021/05/22 02:08:05;;;;;;;8.93;1.75;;;;;;;-142.75;63.65;76192.38;4999401;28;20368;-78
2021/05/22 02:10:31;;;;;;;10.80;1.40;;;;;;;-142.75;63.79;76188.44;4993083;28;20030;-77
2021/05/22 02:12:57;;;;;;;7.25;1.92;;;;;;;-142.75;63.90;76186.47;4992392;28;20037;-77
2021/05/22 02:15:26;;;;;;;10.30;2.33;;;;;;;-142.75;63.20;76184.50;4990161;28;20030;-77
2021/05/22 02:17:53;;;;;;;10.10;1.50;;;;;;;-142.75;63.58;76184.50;4991768;28;20041;-78
2021/05/22 02:20:22;;;;;;;8.63;1.90;;;;;;;-142.75;63.90;76172.69;4973453;28;20030;-78
2021/05/22 02:22:48;;;;;;;12.63;2.17;;;;;;;-142.75;63.48;76162.84;4998434;28;20113;-77
2021/05/22 02:25:15;;;;;;;7.47;1.30;;;;;;;-142.75;63.14;76166.78;4974763;28;20109;-78
2021/05/22 02:27:40;;;;;;;10.97;1.70;;;;;;;-142.75;63.36;76166.78;4997856;28;20113;-79
2021/05/22 02:30:12;;;;;;;10.30;1.83;;;;;;;-142.75;63.64;76162.84;4992527;28;20122;-78
2021/05/22 02:32:42;;;;;;;8.50;1.23;;;;;;;-142.75;64.17;76147.09;4998503;28;20026;-79
2021/05/22 02:35:10;;;;;;;17.70;2.30;;;;;;;-142.75;63.66;76153.00;4991214;28;20030;-78
2021/05/22 02:37:37;;;;;;;9.00;1.67;;;;;;;-142.75;63.34;76149.06;4973332;28;20110;-80
2021/05/22 02:40:13;;;;;;;8.60;1.40;;;;;;;-142.75;63.06;76156.94;4974730;28;20022;-79
2021/05/22 02:42:43;;;;;;;10.75;1.60;;;;;;;-142.75;63.42;76153.00;4993860;28;20033;-80
2021/05/22 02:45:11;;;;;;;12.00;1.70;;;;;;;-142.75;63.82;76162.84;5082115;28;20033;-78
2021/05/22 02:47:39;;;;;;;12.10;2.03;;;;;;;-142.75;63.24;76151.03;4975114;28;20028;-79
2021/05/22 02:50:09;;;;;;;12.20;2.33;;;;;;;-142.75;63.43;76162.84;4991720;28;20576;-79
2021/05/22 02:52:37;;;;;;;20.10;2.20;;;;;;;-142.75;64.09;76168.75;4991268;28;20078;-79
2021/05/22 02:55:05;;;;;;;12.23;1.43;;;;;;;-142.75;63.85;76164.81;5011433;28;20570;-78
2021/05/22 02:57:32;;;;;;;9.00;1.77;;;;;;;-142.75;64.34;76160.88;4973761;28;20018;-78
2021/05/22 02:59:58;;;;;;;12.67;2.20;;;;;;;-142.75;64.38;76151.03;4991471;28;20026;-78
2021/05/22 03:02:23;;;;;;;8.30;2.13;;;;;;;-142.75;64.33;76160.88;4991674;28;20491;-77
2021/05/22 03:04:49;;;;;;;8.20;2.00;;;;;;;-142.75;64.30;76158.91;4991688;28;20095;-78
2021/05/22 03:07:15;;;;;;;12.40;1.70;;;;;;;-142.75;64.13;76156.94;4974139;28;20440;-78
2021/05/22 03:09:40;;;;;;;14.63;2.28;;;;;;;-142.75;64.52;76162.84;4989565;28;20068;-77
2021/05/22 03:12:08;;;;;;;6.18;1.88;;;;;;;-142.75;64.23;76156.94;4975044;28;20026;-79
2021/05/22 03:14:33;;;;;;;11.93;1.63;;;;;;;-142.75;64.24;76172.69;4991434;28;20501;-77
2021/05/22 03:16:58;;;;;;;9.13;1.67;;;;;;;-142.75;64.63;76172.69;4973094;28;20079;-77
2021/05/22 03:19:24;;;;;;;8.30;1.70;;;;;;;-142.75;65.21;76172.69;4990478;28;20022;-77
2021/05/22 03:21:49;;;;;;;14.68;2.20;;;;;;;-142.75;65.31;76184.50;4973278;28;20030;-78
2021/05/22 03:24:14;;;;;;;8.30;1.97;;;;;;;-142.75;65.15;76180.56;4990884;28;20045;-77
2021/05/22 03:26:40;;;;;;;6.82;2.00;;;;;;;-142.75;65.46;76190.41;4989836;28;20120;-78
2021/05/22 03:29:05;;;;;;;8.52;2.42;;;;;;;-142.75;65.46;76190.41;4990608;28;20049;-78
2021/05/22 03:31:30;;;;;;;7.82;2.00;;;;;;;-142.75;65.96;76184.50;5013619;23;20433;-79
2021/05/22 03:33:56;;;;;;;16.48;2.45;;;;;;;-142.75;66.32;76194.34;5045897;28;20073;-81
2021/05/22 03:36:21;;;;;;;14.00;2.40;;;;;;;-142.75;66.49;76210.06;4981479;28;20022;-84
2021/05/22 03:38:47;;;;;;;13.43;2.25;;;;;;;-142.75;66.09;76200.25;5049234;28;20033;-82
2021/05/22 03:41:12;;;;;;;12.35;2.65;;;;;;;-142.75;66.77;76200.25;5049435;28;20026;-85
2021/05/22 03:43:40;;;;;;;11.93;2.35;;;;;;;-142.75;66.54;76202.19;5049467;28;20026;-85
2021/05/22 03:46:05;;;;;;;13.63;2.63;;;;;;;-142.75;66.87;76196.31;4983926;28;20429;-82
2021/05/22 03:48:30;;;;;;;9.50;2.22;;;;;;;-142.75;66.71;76215.97;5049369;28;20031;-86
2021/05/22 03:50:56;;;;;;;9.68;2.42;;;;;;;-142.75;66.66;76202.19;5048723;28;20026;-85
2021/05/22 03:53:22;;;;;;;10.13;2.25;;;;;;;-142.75;67.12;76202.19;4983605;28;20030;-87
2021/05/22 03:55:47;;;;;;;11.18;2.03;;;;;;;-142.75;66.78;76206.13;5048957;28;20067;-85
2021/05/22 03:58:13;;;;;;;16.08;2.53;;;;;;;-142.75;66.80;76202.19;5047871;28;20026;-83
2021/05/22 04:00:38;;;;;;;9.32;2.63;;;;;;;-142.75;66.89;76206.13;5048301;28;20080;-87
2021/05/22 04:03:05;;;;;;;8.30;2.35;;;;;;;-142.75;66.91;76204.16;5049483;28;20041;-83
2021/05/22 04:05:30;;;;;;;8.03;2.40;;;;;;;-142.75;66.89;76196.31;5048509;28;20014;-84
2021/05/22 04:07:56;;;;;;;12.15;2.17;;;;;;;-142.75;67.35;76198.28;5050119;28;20049;-84
2021/05/22 04:10:21;;;;;;;7.77;2.10;;;;;;;-142.75;67.32;76198.28;4985312;28;20026;-83
2021/05/22 04:12:46;;;;;;;9.07;2.67;;;;;;;-142.75;67.16;76210.06;4982041;28;20410;-85
2021/05/22 04:15:12;;;;;;;9.15;2.05;;;;;;;-142.75;67.47;76210.06;5049273;28;20029;-83
2021/05/22 04:17:37;;;;;;;6.60;2.00;;;;;;;-142.75;67.36;76198.28;5050699;28;20124;-84
2021/05/22 04:20:04;;;;;;;13.15;2.88;;;;;;;-142.75;67.74;76202.19;5049339;28;20022;-85
2021/05/22 04:22:29;;;;;;;7.67;2.20;;;;;;;-142.75;67.92;76200.25;4980892;28;20037;-84
2021/05/22 04:24:54;;;;;;;9.40;1.70;;;;;;;-142.75;67.66;76208.09;5047891;28;20400;-84
2021/05/22 04:27:20;;;;;;;10.05;1.80;;;;;;;-142.75;67.70;76215.97;4980456;28;20031;-82
2021/05/22 04:29:45;;;;;;;8.57;2.13;;;;;;;-142.75;67.70;76219.91;5048288;28;20555;-83
2021/05/22 04:32:10;;;;;;;10.48;2.40;;;;;;;-142.75;67.94;76231.72;4980238;28;20396;-87
2021/05/22 04:34:36;;;;;;;12.77;3.17;;;;;;;-142.75;68.50;76221.88;4985108;28;20101;-85
2021/05/22 04:37:01;;;;;;;6.65;2.33;;;;;;;-142.75;68.65;76223.84;5047916;28;20280;-83
2021/05/22 04:39:26;;;;;;;11.90;2.35;;;;;;;-142.75;68.64;76233.69;5048506;28;20095;-84
2021/05/22 04:41:52;;;;;;;10.73;2.63;;;;;;;-142.75;68.71;76225.81;5049588;28;20026;-85
2021/05/22 04:44:17;;;;;;;9.88;2.08;;;;;;;-142.75;68.57;76239.59;5048716;28;20695;-84
2021/05/22 04:46:42;;;;;;;9.02;2.33;;;;;;;-142.75;68.30;76231.72;4986132;28;20023;-82
2021/05/22 04:49:08;;;;;;;11.55;2.88;;;;;;;-142.75;68.61;76241.56;4986533;28;20714;-85
2021/05/22 04:51:33;;;;;;;8.98;2.20;;;;;;;-142.75;68.59;76239.59;5054324;28;20107;-82
2021/05/22 04:54:04;;;;;;;6.72;2.38;;;;;;;-142.75;69.04;76243.53;4985945;28;20101;-84
2021/05/22 04:56:30;;;;;;;11.63;2.70;;;;;;;-142.75;69.31;76253.38;5049742;28;20026;-87
2021/05/22 04:58:56;;;;;;;9.10;3.20;;;;;;;-142.75;69.47;76249.44;4984665;28;20061;-84
2021/05/22 05:01:21;;;;;;;7.47;2.50;;;;;;;-142.75;69.51;76257.31;5051810;28;20123;-84
2021/05/22 05:03:47;;;;;;;8.93;2.47;;;;;;;-142.75;69.71;76265.19;4985524;28;20030;-79
2021/05/22 05:06:12;;;;;;;10.02;3.08;;;;;;;-142.75;69.75;76263.22;5052102;28;20101;-83
2021/05/22 05:08:38;;;;;;;7.57;2.40;;;;;;;-142.75;69.76;76249.44;4985225;28;20039;-83
2021/05/22 05:11:03;;;;;;;9.98;3.30;;;;;;;-142.75;69.96;76267.16;5050860;28;20579;-85
2021/05/22 05:13:30;;;;;;;7.05;2.75;;;;;;;-142.75;70.24;76271.09;5050184;28;20030;-83
2021/05/22 05:15:56;;;;;;;10.47;2.77;;;;;;;-142.75;70.42;76263.22;5050812;28;20023;-83
2021/05/22 05:18:21;;;;;;;7.47;2.77;;;;;;;-142.75;70.42;76263.22;5051740;28;20564;-84
2021/05/22 05:20:46;;;;;;;11.53;3.20;;;;;;;-142.75;70.12;76267.16;4984594;28;20285;-83
2021/05/22 05:23:11;;;;;;;9.30;3.07;;;;;;;-142.75;70.16;76271.09;4984693;28;20760;-82
2021/05/22 05:25:37;;;;;;;8.30;3.08;;;;;;;-142.75;70.40;76275.03;5052104;28;20023;-82
2021/05/22 05:28:02;;;;;;;12.73;2.88;;;;;;;-142.75;70.55;76277.00;5051755;28;20030;-84
2021/05/22 05:30:27;;;;;;;8.93;3.38;;;;;;;-142.75;70.78;76275.03;4985494;28;20092;-84
2021/05/22 05:32:53;;;;;;;15.00;3.88;;;;;;;-142.75;70.89;76280.94;5050622;28;20026;-81
2021/05/22 05:35:18;;;;;;;7.50;3.28;;;;;;;-142.75;70.74;76278.97;5050613;28;20025;-83
2021/05/22 05:37:44;;;;;;;11.38;3.28;;;;;;;-142.75;71.04;76290.78;5051426;28;20030;-82
2021/05/22 05:40:09;;;;;;;8.13;3.15;;;;;;;-142.75;70.83;76269.13;5051387;28;20036;-84
2021/05/22 05:42:35;;;;;;;15.45;3.33;;;;;;;-142.75;70.64;76271.09;5051769;28;20033;-83
2021/05/22 05:45:01;;;;;;;11.93;3.38;;;;;;;-142.75;70.82;76271.09;4982950;28;20041;-88
2021/05/22 05:47:26;;;;;;;9.95;3.53;;;;;;;-142.75;70.92;76288.81;5053101;28;20030;-83
2021/05/22 05:49:51;;;;;;;8.27;3.47;;;;;;;-142.75;71.01;76282.91;5050968;28;20031;-85
2021/05/22 05:52:17;;;;;;;7.73;3.83;;;;;;;-142.75;70.93;76273.06;5050686;28;20029;-84
2021/05/22 05:54:42;;;;;;;8.17;3.33;;;;;;;-142.75;70.95;76277.00;4983905;28;20670;-85
2021/05/22 05:57:07;;;;;;;11.15;3.10;;;;;;;-142.75;70.78;76269.13;5049508;28;20117;-82
2021/05/22 05:59:32;;;;;;;9.30;3.50;;;;;;;-142.75;70.80;76267.16;4983579;28;20030;-82
2021/05/22 06:01:58;;;;;;;12.10;3.20;;;;;;;-142.75;70.85;76280.94;4982193;28;20337;-82
2021/05/22 06:04:23;;;;;;;7.05;3.08;;;;;;;-142.75;70.83;76275.03;5067174;28;20774;-81
2021/05/22 06:06:49;;;;;;;10.97;3.23;;;;;;;-142.75;70.79;76267.16;5049239;28;20022;-81
2021/05/22 06:09:15;;;;;;;11.97;3.23;;;;;;;-142.75;70.83;76271.09;5050389;28;20368;-85
2021/05/22 06:11:41;;;;;;;9.20;3.22;;;;;;;-142.75;71.14;76269.13;5053543;28;20118;-80
2021/05/22 06:14:15;;;;;;;6.93;3.15;;;;;;;-142.75;70.87;76263.22;5046396;28;20155;-80
2021/05/22 06:16:41;;;;;;;8.60;2.80;;;;;;;-142.75;70.79;76253.38;4982519;28;20058;-82
2021/05/22 06:19:07;;;;;;;8.47;2.80;;;;;;;-142.75;70.89;76247.47;5048167;28;20022;-82
2021/05/22 06:21:36;;;;;;;9.82;3.03;;;;;;;-142.75;70.54;76251.41;5048736;28;20034;-82
2021/05/22 06:24:03;;;;;;;7.17;2.77;;;;;;;-142.75;70.83;76261.25;5051707;28;20029;-82
2021/05/22 06:26:28;;;;;;;;;;;;;;;-142.75;70.97;76251.41;4982824;28;20030;-82
2021/05/22 06:28:53;;;;;;;9.47;2.83;;;;;;;-142.75;71.16;76239.59;4979115;28;19917;-81
2021/05/22 06:31:18;;;;;;;8.32;2.60;;;;;;;-142.75;70.81;76243.53;5047670;28;20068;-82
2021/05/22 06:33:44;;;;;;;10.07;2.93;;;;;;;-142.75;70.53;76241.56;4984016;28;20034;-83
2021/05/22 06:36:09;;;;;;;7.13;2.87;;;;;;;-142.75;70.72;76239.59;5048594;28;20262;-86
2021/05/22 06:38:35;;;;;;;8.00;3.22;;;;;;;-142.75;70.54;76239.59;5050171;28;20291;-83
2021/05/22 06:41:02;;;;;;;11.23;3.30;;;;;;;-142.75;70.51;76229.75;5049012;28;20026;-82
2021/05/22 06:43:27;;;;;;;9.47;3.47;;;;;;;-142.75;70.61;76239.59;4980743;28;20034;-83
2021/05/22 06:46:06;;;;;;;6.70;2.83;;;;;;;-142.75;70.46;76233.69;5049728;28;20019;-79
2021/05/22 06:48:31;;;;;;;7.50;2.93;;;;;;;-142.75;70.58;76247.47;5045245;28;20408;-81
2021/05/22 06:50:56;;;;;;;11.27;2.67;;;;;;;-142.75;70.70;76253.38;5049460;28;20034;-84
2021/05/22 06:53:22;;;;;;;8.55;3.00;;;;;;;-142.75;70.64;76239.59;5047916;28;20399;-82
2021/05/22 06:55:47;;;;;;;7.88;2.58;;;;;;;-142.75;70.81;76251.41;5047115;28;20019;-82
2021/05/22 06:58:12;;;;;;;5.22;2.72;;;;;;;-142.75;70.72;76251.41;4985210;28;20030;-84
2021/05/22 07:00:38;;;;;;;11.18;3.03;;;;;;;-142.75;70.82;76249.44;4981810;28;20033;-81
2021/05/22 07:03:03;;;;;;;7.75;3.35;;;;;;;-142.75;70.95;76263.22;5048547;28;20061;-84
2021/05/22 07:05:29;;;;;;;7.45;2.80;;;;;;;-142.75;70.79;76261.25;4981594;28;20698;-85
2021/05/22 07:07:55;;;;;;;10.48;3.75;;;;;;;-142.75;70.86;76259.28;4980412;28;20038;-81
2021/05/22 07:10:20;;;;;;;6.75;3.08;;;;;;;-142.75;71.13;76261.25;4977937;28;20029;-85
2021/05/22 07:12:46;;;;;;;9.73;3.38;;;;;;;-142.75;71.28;76251.41;5049034;28;20411;-80
2021/05/22 07:15:12;;;;;;;5.45;2.95;;;;;;;-142.75;70.76;76249.44;4977931;28;20019;-82
2021/05/22 07:17:37;;;;;;;9.07;3.10;;;;;;;-142.75;70.89;76249.44;4977566;28;20360;-81
2021/05/22 07:20:04;;;;;;;5.95;2.70;;;;;;;-142.75;70.72;76251.41;4974159;28;20084;-79
2021/05/22 07:22:29;;;;;;;9.67;3.70;;;;;;;-142.75;70.87;76251.41;5036291;28;20049;-80
2021/05/22 07:24:54;;;;;;;9.18;3.40;;;;;;;-142.75;70.60;76245.50;5048635;28;20059;-78
2021/05/22 07:27:20;;;;;;;12.75;4.47;;;;;;;-142.75;70.59;76247.47;5056232;28;20095;-79
2021/05/22 07:29:47;;;;;;;9.32;3.47;;;;;;;-142.75;70.69;76253.38;4989032;28;20069;-78
2021/05/22 07:32:12;;;;;;;9.03;3.20;;;;;;;-142.75;70.83;76243.53;5038723;28;20486;-78
2021/05/22 07:34:38;;;;;;;6.75;2.97;;;;;;;-142.75;70.70;76251.41;4969414;28;20125;-78
2021/05/22 07:37:03;;;;;;;10.25;3.25;;;;;;;-142.75;70.79;76261.25;5035054;28;20027;-78
2021/05/22 07:39:28;;;;;;;9.55;2.97;;;;;;;-142.75;70.95;76251.41;5035948;28;20062;-78
2021/05/22 07:41:54;;;;;;;5.07;2.63;;;;;;;-142.75;70.94;76243.53;4969282;28;20056;-78
2021/05/22 07:44:19;;;;;;;9.13;2.85;;;;;;;-142.75;70.89;76243.53;5038255;28;20019;-78
2021/05/22 07:46:44;;;;;;;9.20;2.80;;;;;;;-142.75;71.07;76241.56;4988629;28;20041;-78
2021/05/22 07:49:10;;;;;;;11.23;2.50;;;;;;;-142.75;70.75;76231.72;4972720;28;20115;-78
2021/05/22 07:51:35;;;;;;;11.18;2.55;;;;;;;-142.75;70.73;76227.78;5055843;28;20034;-77
2021/05/22 07:54:00;;;;;;;10.98;2.47;;;;;;;-142.75;70.55;76235.66;4988758;28;20030;-80
2021/05/22 07:56:26;;;;;;;7.55;2.42;;;;;;;-142.75;70.65;76243.53;4988203;28;20480;-77
2021/05/22 07:58:51;;;;;;;8.27;2.20;;;;;;;-142.75;70.87;76247.47;5055617;28;20022;-77
2021/05/22 08:01:17;;;;;;;10.48;2.20;;;;;;;-142.75;70.74;76243.53;4987821;28;20060;-77
2021/05/22 08:03:42;;;;;;;6.20;2.00;;;;;;;-142.75;70.59;76243.53;4988320;28;20058;-78
2021/05/22 08:06:07;;;;;;;8.50;1.67;;;;;;;-142.75;70.64;76233.69;4987110;28;20018;-82
2021/05/22 08:08:33;;;;;;;6.93;1.90;;;;;;;-142.75;70.67;76237.63;4986221;28;20042;-80
2021/05/22 08:10:58;;;;;;;7.65;1.52;;;;;;;-142.75;70.73;76225.81;4977380;28;20097;-81
2021/05/22 08:13:27;;;;;;;11.70;2.25;;;;;;;-142.75;70.52;76221.88;5048067;28;20030;-79
2021/05/22 08:15:53;;;;;;;7.97;2.35;;;;;;;-142.75;70.46;76219.91;4976107;28;20026;-80
2021/05/22 08:18:19;;;;;;;10.02;1.85;;;;;;;-142.75;70.27;76221.88;5036176;28;20483;-80
2021/05/22 08:20:44;;;;;;;8.15;1.70;;;;;;;-142.75;70.41;76225.81;4972834;28;20523;-78
2021/05/22 08:23:09;;;;;;;11.15;1.70;;;;;;;-142.75;70.42;76225.81;5049888;28;20030;-77
2021/05/22 08:25:34;;;;;;;6.57;1.88;;;;;;;-142.75;70.58;76227.78;5042533;28;20522;-79
2021/05/22 08:28:00;;;;;;;9.02;1.70;;;;;;;-142.75;70.64;76237.63;5038009;28;20030;-79
2021/05/22 08:30:25;;;;;;;7.28;1.50;;;;;;;-142.75;70.40;76221.88;5037124;28;20026;-79
2021/05/22 08:32:50;;;;;;;10.63;1.35;;;;;;;-142.75;70.00;76223.84;5042946;28;20031;-81
2021/05/22 08:35:16;;;;;;;5.38;1.45;;;;;;;-142.75;70.11;76212.03;4980506;28;20019;-79
2021/05/22 08:37:41;;;;;;;6.72;1.42;;;;;;;-142.75;70.17;76188.44;4981596;28;20029;-81
2021/05/22 08:40:08;;;;;;;4.88;1.80;;;;;;;-142.75;69.63;76178.59;4985186;28;20034;-81
2021/05/22 08:42:36;;;;;;;6.53;1.90;;;;;;;-142.75;69.57;76172.69;4982739;28;20026;-80
2021/05/22 08:45:06;;;;;;;9.88;2.30;;;;;;;-142.75;69.66;76178.59;4977208;28;20026;-81
2021/05/22 08:47:31;;;;;;;6.72;1.73;;;;;;;-142.75;69.27;76196.31;5044379;28;20026;-80
2021/05/22 08:49:57;;;;;;;5.03;1.52;;;;;;;-142.75;69.08;76210.06;5050138;28;20395;-80
2021/05/22 08:52:23;;;;;;;6.80;2.13;;;;;;;-142.75;69.54;76217.94;5041679;28;20023;-80
2021/05/22 08:54:49;;;;;;;5.80;1.77;;;;;;;-142.75;70.09;76227.78;4977700;28;20031;-80
2021/05/22 08:57:14;;;;;;;;;;;;;;;-142.75;70.38;76217.94;5045550;28;20034;-79
2021/05/22 08:59:43;;;;;;;5.95;1.60;;;;;;;-142.75;69.99;76204.16;4975779;28;19921;-80
2021/05/22 09:02:11;;;;;;;5.20;1.60;;;;;;;-142.75;69.96;76217.94;5047137;28;20030;-81
2021/05/22 09:05:04;;;;;;;4.43;1.70;;;;;;;-142.75;70.35;76212.03;4978751;28;20034;-80
2021/05/22 09:07:31;;;;;;;6.78;2.05;;;;;;;-142.75;70.15;76219.91;4978913;28;20050;-85
2021/05/22 09:10:10;;;;;;;7.10;1.77;;;;;;;-142.75;69.48;76221.88;5048510;28;20167;-84
2021/05/22 09:12:37;;;;;;;9.07;2.50;;;;;;;-142.75;69.32;76229.75;4980115;28;20022;-82
2021/05/22 09:15:13;;;;;;;5.03;2.63;;;;;;;-142.75;69.68;76223.84;5048575;28;20023;-83
2021/05/22 09:17:45;;;;;;;6.13;2.42;;;;;;;-142.75;69.26;76229.75;5049964;28;20105;-83
2021/05/22 09:20:14;;;;;;;5.28;2.63;;;;;;;-142.75;69.26;76231.72;4978309;28;20027;-82
2021/05/22 09:22:39;;;;;;;6.18;2.40;;;;;;;-142.75;68.84;76231.72;5049268;28;20081;-82
2021/05/22 09:25:06;;;;;;;4.40;2.58;;;;;;;-142.75;69.13;76235.66;4979769;28;20027;-79
2021/05/22 09:27:40;;;;;;;7.63;2.97;;;;;;;-142.75;69.48;76243.53;4981535;28;20091;-80
2021/05/22 09:30:12;;;;;;;8.57;4.03;;;;;;;-142.75;69.41;76259.28;4981481;28;20034;-82
2021/05/22 09:32:41;;;;;;;7.72;3.10;;;;;;;-142.75;69.57;76269.13;4982890;28;20026;-81
2021/05/22 09:35:08;;;;;;;7.65;3.25;;;;;;;-142.75;69.83;76277.00;5050889;28;20414;-84
2021/05/22 09:37:49;;;;;;;8.13;2.95;;;;;;;-142.75;69.32;76286.84;4984260;28;20376;-82
2021/05/22 09:40:22;;;;;;;12.00;3.50;;;;;;;-142.75;69.58;76304.56;4982284;28;20062;-81
2021/05/22 09:42:47;;;;;;;7.63;2.50;;;;;;;-142.75;69.59;76367.53;4985895;28;20044;-82
2021/05/22 09:45:26;;;;;;;7.72;1.67;;;;;;;-142.75;69.47;76383.28;4985880;28;20031;-80
2021/05/22 09:47:51;;;;;;;5.93;1.20;;;;;;;-142.75;68.92;76401.00;5050235;28;20053;-83
2021/05/22 09:50:37;;;;;;;7.30;1.40;;;;;;;-142.75;69.42;76397.06;5052106;28;21020;-82
2021/05/22 09:53:33;;;;;;;6.80;1.67;;;;;;;-142.75;69.04;76393.13;5053027;28;20485;-83
2021/05/22 09:56:17;;;;;;;4.70;1.80;;;;;;;-142.75;69.20;76389.19;5050663;28;20022;-82
2021/05/22 09:58:56;;;;;;;4.33;1.70;;;;;;;-142.75;69.47;76371.47;5043795;28;20502;-81
2021/05/22 10:01:30;;;;;;;5.78;1.90;;;;;;;-142.75;69.40;76330.16;4980770;28;20061;-82
2021/05/22 10:04:18;;;;;;;6.87;1.80;;;;;;;-142.75;68.26;76338.03;5048547;28;20074;-81
2021/05/22 10:06:44;;;;;;;7.18;1.80;;;;;;;-142.75;68.27;76324.25;5053429;28;20033;-82
2021/05/22 10:09:14;;;;;;;6.95;1.70;;;;;;;-142.75;67.27;76341.97;5055092;28;20062;-82
2021/05/22 10:12:15;;;;;;;3.10;1.40;;;;;;;-142.75;67.32;76351.81;5051770;28;20488;-82
2021/05/22 10:14:42;;;;;;;7.00;2.00;;;;;;;-142.75;67.24;76355.72;4987427;28;20387;-82
2021/05/22 10:17:10;;;;;;;6.28;2.05;;;;;;;-142.75;67.93;76338.03;4985777;28;20102;-82
2021/05/22 10:19:36;;;;;;;6.25;2.03;;;;;;;-142.75;66.90;76353.78;4981572;28;20649;-82
2021/05/22 10:22:03;;;;;;;6.18;2.00;;;;;;;-142.75;67.50;76365.56;4984392;28;20026;-82
2021/05/22 10:24:29;;;;;;;6.20;2.37;;;;;;;-142.75;68.03;76373.44;4986339;28;20049;-83
2021/05/22 10:26:56;;;;;;;7.47;2.95;;;;;;;-142.75;67.45;76391.16;4984766;28;20081;-82
2021/05/22 10:29:22;;;;;;;6.55;2.42;;;;;;;-142.75;67.60;76395.09;4981878;28;20036;-81
2021/05/22 10:31:48;;;;;;;6.07;2.38;;;;;;;-142.75;67.40;76424.63;4982066;28;20472;-80
2021/05/22 10:34:17;;;;;;;5.80;2.30;;;;;;;-142.75;67.60;76438.41;5052199;28;20022;-80
2021/05/22 10:36:59;;;;;;;7.55;2.90;;;;;;;-142.75;67.66;76432.50;5048287;28;20034;-80
2021/05/22 10:39:40;;;;;;;8.48;3.03;;;;;;;-142.75;67.38;76412.81;5052045;28;20045;-81
2021/05/22 10:42:20;;;;;;;6.90;3.10;;;;;;;-142.75;67.22;76389.19;4983810;28;20121;-81
2021/05/22 10:44:46;;;;;;;6.60;2.60;;;;;;;-142.75;65.87;76404.94;4984856;28;20023;-83
2021/05/22 10:47:17;;;;;;;7.50;2.95;;;;;;;-142.75;66.54;76416.75;4982739;28;20034;-82
2021/05/22 10:49:54;;;;;;;7.32;3.00;;;;;;;-142.75;66.99;76432.50;5048839;28;20111;-78
2021/05/22 10:52:24;;;;;;;7.70;2.90;;;;;;;-142.75;67.35;76444.31;5051689;28;20042;-79
2021/05/22 10:55:15;;;;;;;8.60;3.30;;;;;;;-142.75;67.16;76454.16;5051096;28;20460;-79
2021/05/22 10:57:47;;;;;;;7.10;3.37;;;;;;;-142.75;66.77;76469.91;4985117;28;20030;-81
2021/05/22 11:00:22;;;;;;;8.97;3.57;;;;;;;-142.75;67.32;76475.81;4982575;28;20030;-80
2021/05/22 11:02:54;;;;;;;12.30;3.67;;;;;;;-142.75;66.66;76487.63;5051044;28;20030;-80
2021/05/22 11:05:23;;;;;;;5.33;3.47;;;;;;;-142.75;66.82;76487.63;5045741;28;20066;-79
2021/05/22 11:08:08;;;;;;;6.10;3.10;;;;;;;-142.75;66.10;76499.44;4984229;28;20145;-82
2021/05/22 11:10:37;;;;;;;12.07;2.97;;;;;;;-142.75;65.90;76483.69;5044240;28;20053;-81
2021/05/22 11:13:08;;;;;;;11.20;3.90;;;;;;;-142.75;65.87;76479.75;5050388;28;20103;-82
2021/05/22 11:15:44;;;;;;;5.10;3.07;;;;;;;-142.75;65.88;76481.72;4982919;28;20038;-80